Time;durP1;ratioP1;P1;durP2;ratioP2;P2;SDS_P1;SDS_P2;PMS_P1;PMS_P2;Temp;Humidity;BMP_temperature;BMP_pressure;BME280_temperature;BME280_humidity;BME280_pressure;Samples;Min_cycle;Max_cycle;Signal;HPM_P1;HPM_P2
2021/03/13 00:00:51;;;;;;;20.77;4.90;;;;;;;3.20;85.99;98072.00;5045154;28;20079;-65
2021/03/13 00:03:17;;;;;;;34.10;6.13;;;;;;;3.24;86.07;98075.38;5045248;28;20029;-66
2021/03/13 00:05:44;;;;;;;31.13;5.35;;;;;;;3.24;85.94;98065.97;5045241;28;20048;-65
2021/03/13 00:08:11;;;;;;;23.55;5.53;;;;;;;3.25;86.03;98064.22;5045147;28;20077;-64
2021/03/13 00:10:37;;;;;;;33.35;6.40;;;;;;;3.26;86.04;98061.63;5044912;28;20099;-65
2021/03/13 00:13:04;;;;;;;34.25;8.38;;;;;;;3.28;85.91;98065.03;5044723;28;20048;-64
2021/03/13 00:15:29;;;;;;;39.22;6.97;;;;;;;3.21;85.99;98048.88;5044481;28;20075;-64
2021/03/13 00:17:56;;;;;;;37.20;7.55;;;;;;;3.22;85.98;98049.75;5044828;28;20389;-64
2021/03/13 00:20:24;;;;;;;25.77;6.37;;;;;;;3.29;86.24;98055.63;5044558;28;20022;-64
2021/03/13 00:22:50;;;;;;;37.97;7.53;;;;;;;3.31;86.20;98054.72;5044689;28;20025;-64
2021/03/13 00:25:16;;;;;;;51.80;9.48;;;;;;;3.33;86.21;98049.56;5044639;28;20315;-64
2021/03/13 00:27:47;;;;;;;39.30;10.45;;;;;;;3.35;86.14;98050.38;5044471;28;20084;-64
2021/03/13 00:30:17;;;;;;;38.00;9.40;;;;;;;3.33;86.31;98049.56;5044637;28;20041;-64
2021/03/13 00:32:43;;;;;;;40.08;7.60;;;;;;;3.35;86.34;98047.81;5044255;28;20030;-66
2021/03/13 00:35:10;;;;;;;49.35;9.18;;;;;;;3.35;86.31;98045.25;5044850;28;20026;-64
2021/03/13 00:37:35;;;;;;;41.60;8.75;;;;;;;3.35;86.34;98045.25;5044458;28;20032;-63
2021/03/13 00:40:03;;;;;;;43.55;10.15;;;;;;;3.33;86.40;98041.88;5044526;28;20041;-63
2021/03/13 00:42:28;;;;;;;34.53;8.88;;;;;;;3.38;86.21;98040.06;5044110;28;20056;-63
2021/03/13 00:44:54;;;;;;;32.88;9.73;;;;;;;3.37;86.40;98037.53;5044030;28;20025;-64
2021/03/13 00:47:19;;;;;;;41.53;8.57;;;;;;;3.37;86.31;98037.53;5044328;28;20052;-64
2021/03/13 00:49:44;;;;;;;38.28;8.30;;;;;;;3.38;86.34;98028.97;5044139;28;20033;-64
2021/03/13 00:52:10;;;;;;;34.38;8.23;;;;;;;3.40;86.35;98038.34;5043992;28;20081;-64
2021/03/13 00:54:35;;;;;;;44.22;8.05;;;;;;;3.39;86.08;98028.94;5044080;28;20081;-64
2021/03/13 00:57:01;;;;;;;34.45;8.18;;;;;;;3.34;86.18;98026.44;5044012;28;20473;-64
2021/03/13 00:59:28;;;;;;;21.65;5.30;;;;;;;3.33;86.12;98036.72;5044120;28;20533;-64
2021/03/13 01:01:54;;;;;;;21.20;5.70;;;;;;;3.34;86.15;98028.16;5043553;28;20269;-64
2021/03/13 01:04:19;;;;;;;30.33;7.55;;;;;;;3.37;86.16;98025.53;5044186;28;20608;-64
2021/03/13 01:06:45;;;;;;;34.83;7.57;;;;;;;3.32;86.18;98017.09;5043657;28;20117;-64
2021/03/13 01:09:10;;;;;;;34.13;6.93;;;;;;;3.38;86.10;98023.81;5044064;28;20059;-64
2021/03/13 01:11:36;;;;;;;28.92;7.30;;;;;;;3.35;86.26;98017.88;5043799;28;20037;-64
2021/03/13 01:14:01;;;;;;;29.50;6.70;;;;;;;3.37;85.98;98019.59;5044219;28;20098;-64
2021/03/13 01:16:26;;;;;;;32.83;7.47;;;;;;;3.39;86.00;98017.81;5043663;28;20037;-64
2021/03/13 01:18:52;;;;;;;29.38;7.00;;;;;;;3.38;86.21;98023.81;5044856;28;20445;-64
2021/03/13 01:21:18;;;;;;;34.70;6.20;;;;;;;3.37;86.15;98015.28;5044309;28;20068;-64
2021/03/13 01:23:43;;;;;;;31.85;5.88;;;;;;;3.40;86.21;98030.66;5043930;28;20103;-64
2021/03/13 01:26:09;;;;;;;41.35;8.60;;;;;;;3.38;86.15;98019.56;5043692;28;20052;-64
2021/03/13 01:28:34;;;;;;;30.02;7.50;;;;;;;3.41;86.14;98021.22;5041945;28;20025;-64
2021/03/13 01:30:59;;;;;;;33.83;7.22;;;;;;;3.40;86.08;98020.38;5043542;28;20025;-64
2021/03/13 01:33:25;;;;;;;45.47;10.23;;;;;;;3.40;86.08;98022.09;5043667;28;20091;-64
2021/03/13 01:35:50;;;;;;;39.53;9.05;;;;;;;3.37;86.14;98012.72;5043531;28;20025;-64
2021/03/13 01:38:15;;;;;;;37.95;7.55;;;;;;;3.35;86.17;98019.59;5043880;28;20036;-64
2021/03/13 01:40:41;;;;;;;38.40;7.43;;;;;;;3.32;86.18;98019.66;5043148;28;20025;-64
2021/03/13 01:43:06;;;;;;;36.92;8.00;;;;;;;3.31;86.22;98017.94;5043314;28;20047;-64
2021/03/13 01:45:32;;;;;;;37.35;8.27;;;;;;;3.31;86.32;98018.81;5043418;28;20025;-64
2021/03/13 01:47:58;;;;;;;30.65;7.38;;;;;;;3.34;86.31;98017.91;5043464;28;20030;-64
2021/03/13 01:50:23;;;;;;;27.35;7.63;;;;;;;3.28;86.47;98006.03;5042294;28;20041;-64
2021/03/13 01:52:49;;;;;;;37.30;9.48;;;;;;;3.30;86.32;98000.88;5043474;28;20018;-64
2021/03/13 01:55:16;;;;;;;40.78;11.20;;;;;;;3.32;86.27;97999.16;5043415;28;20045;-64
2021/03/13 01:57:42;;;;;;;37.70;8.15;;;;;;;3.36;86.54;98000.78;5042080;28;20033;-64
2021/03/13 02:00:14;;;;;;;33.30;7.63;;;;;;;3.34;86.53;98000.81;5043209;28;20031;-64
2021/03/13 02:02:39;;;;;;;40.05;9.95;;;;;;;3.37;86.47;97992.19;5042972;28;20021;-64
2021/03/13 02:05:22;;;;;;;33.47;7.15;;;;;;;3.36;86.49;97990.50;5043543;28;20094;-64
2021/03/13 02:08:11;;;;;;;35.20;8.77;;;;;;;3.39;86.56;97985.31;5043175;28;20048;-64
2021/03/13 02:10:57;;;;;;;26.55;7.03;;;;;;;3.32;86.38;97978.63;5043327;28;20021;-64
2021/03/13 02:13:30;;;;;;;37.65;7.47;;;;;;;3.35;86.32;97986.25;5043194;28;20099;-64
2021/03/13 02:16:09;;;;;;;35.83;8.68;;;;;;;3.39;86.50;97992.16;5042820;28;20053;-64
2021/03/13 02:18:44;;;;;;;40.25;8.45;;;;;;;3.42;86.43;97992.97;5043292;28;20061;-64
2021/03/13 02:21:13;;;;;;;36.88;8.80;;;;;;;3.42;86.48;97989.56;5043013;28;20026;-63
2021/03/13 02:24:09;;;;;;;34.70;8.25;;;;;;;3.40;86.55;97992.16;5041421;28;20026;-63
2021/03/13 02:26:46;;;;;;;28.10;8.35;;;;;;;3.39;86.42;97994.72;5042483;28;20046;-64
2021/03/13 02:29:14;;;;;;;38.25;8.57;;;;;;;3.40;86.37;97986.19;5043030;28;20025;-64
2021/03/13 02:31:41;;;;;;;45.63;9.13;;;;;;;3.40;86.57;97989.59;5043062;28;20020;-64
2021/03/13 02:34:09;;;;;;;39.30;8.70;;;;;;;3.43;86.68;97984.41;5042924;28;20040;-64
2021/03/13 02:36:35;;;;;;;41.67;9.95;;;;;;;3.43;86.52;97991.25;5042851;28;20033;-64
2021/03/13 02:39:06;;;;;;;39.33;9.23;;;;;;;3.43;86.52;97979.28;5043027;28;20498;-64
2021/03/13 02:41:38;;;;;;;38.38;8.98;;;;;;;3.47;86.44;97988.59;5041026;28;20093;-64
2021/03/13 02:44:07;;;;;;;36.47;8.65;;;;;;;3.43;86.52;97979.28;5042940;28;20029;-64
2021/03/13 02:46:38;;;;;;;39.78;8.55;;;;;;;3.46;86.65;97984.34;5042703;28;20029;-64
2021/03/13 02:49:05;;;;;;;26.77;7.23;;;;;;;3.43;86.63;97981.84;5042960;28;20042;-64
2021/03/13 02:51:31;;;;;;;31.10;9.35;;;;;;;3.46;86.47;97992.06;5043561;28;20029;-63
2021/03/13 02:53:58;;;;;;;39.50;7.93;;;;;;;3.42;86.50;97989.56;5046400;28;20081;-63
2021/03/13 02:56:25;;;;;;;37.55;8.13;;;;;;;3.41;86.48;97990.44;5046364;28;20025;-64
2021/03/13 02:58:54;;;;;;;30.92;7.65;;;;;;;3.41;86.58;97988.72;5045174;28;20090;-64
2021/03/13 03:01:22;;;;;;;35.30;8.20;;;;;;;3.40;86.68;97996.44;5046038;28;20386;-64
2021/03/13 03:03:49;;;;;;;42.00;8.77;;;;;;;3.42;86.66;97992.97;5046326;28;20070;-64
2021/03/13 03:06:18;;;;;;;37.60;7.50;;;;;;;3.44;86.58;98004.06;5044640;28;20079;-64
2021/03/13 03:08:45;;;;;;;40.28;8.60;;;;;;;3.47;86.69;97995.44;5046154;28;20391;-64
2021/03/13 03:11:11;;;;;;;35.03;8.65;;;;;;;3.47;86.51;97986.03;5046197;28;20373;-64
2021/03/13 03:13:36;;;;;;;43.47;9.60;;;;;;;3.43;86.61;97993.81;5046312;28;20041;-63
2021/03/13 03:16:07;;;;;;;32.60;8.13;;;;;;;3.51;86.57;97996.25;5045584;28;20021;-64
2021/03/13 03:18:34;;;;;;;45.97;9.02;;;;;;;3.49;86.74;97986.00;5046017;28;20047;-64
2021/03/13 03:21:01;;;;;;;40.78;8.82;;;;;;;3.50;86.63;97992.00;5045665;28;20488;-64
2021/03/13 03:23:26;;;;;;;38.58;8.35;;;;;;;3.51;86.64;97994.53;5045813;28;20131;-64
2021/03/13 03:25:53;;;;;;;39.70;8.57;;;;;;;3.54;86.65;97986.78;5044509;28;20073;-64
2021/03/13 03:28:20;;;;;;;44.53;11.43;;;;;;;3.55;86.58;97987.59;5045754;28;20072;-64
2021/03/13 03:30:47;;;;;;;46.85;8.88;;;;;;;3.53;86.55;97986.81;5045585;28;20044;-64
2021/03/13 03:33:13;;;;;;;33.35;8.50;;;;;;;3.52;86.61;97978.25;5045559;28;20045;-63
2021/03/13 03:35:39;;;;;;;40.38;8.05;;;;;;;3.49;86.62;97987.72;5045791;28;20037;-64
2021/03/13 03:38:06;;;;;;;34.42;7.60;;;;;;;3.51;86.64;97985.97;5044330;28;20637;-64
2021/03/13 03:40:33;;;;;;;27.85;8.73;;;;;;;3.49;86.31;97980.88;5045689;28;20033;-64
2021/03/13 03:43:13;;;;;;;37.70;7.85;;;;;;;3.47;86.64;97985.19;5044120;28;20045;-64
2021/03/13 03:45:41;;;;;;;34.47;8.68;;;;;;;3.51;86.66;97983.41;5045184;28;20116;-64
2021/03/13 03:48:10;;;;;;;23.25;6.57;;;;;;;3.52;86.53;97985.09;5045612;28;20377;-64
2021/03/13 03:50:36;;;;;;;30.27;7.93;;;;;;;3.54;86.48;97980.78;5045066;28;20491;-64
2021/03/13 03:53:04;;;;;;;29.08;10.35;;;;;;;3.57;86.52;97983.28;5045157;28;20085;-64
2021/03/13 03:55:31;;;;;;;27.73;8.52;;;;;;;3.59;86.43;97986.69;5045216;28;20085;-64
2021/03/13 03:57:57;;;;;;;33.72;8.35;;;;;;;3.57;86.29;97986.72;5045412;28;20022;-64
2021/03/13 04:00:23;;;;;;;41.20;7.75;;;;;;;3.57;86.26;97999.53;5043594;28;20438;-64
2021/03/13 04:02:50;;;;;;;28.55;7.38;;;;;;;3.57;86.17;97988.44;5044690;28;20029;-64
2021/03/13 04:05:17;;;;;;;33.85;8.18;;;;;;;3.59;86.42;97995.22;5045181;28;20026;-64
2021/03/13 04:07:43;;;;;;;38.58;7.50;;;;;;;3.59;86.57;97986.69;5045064;28;20029;-64
2021/03/13 04:10:10;;;;;;;26.65;7.40;;;;;;;3.65;86.40;97986.56;5045097;28;20040;-64
2021/03/13 04:12:38;;;;;;;32.17;7.97;;;;;;;3.60;86.28;97988.38;5044803;28;20040;-64
2021/03/13 04:15:07;;;;;;;30.80;7.28;;;;;;;3.58;86.23;97992.66;5044729;28;20022;-64
2021/03/13 04:17:33;;;;;;;31.70;8.07;;;;;;;3.59;86.32;97986.69;5044984;28;20471;-64
2021/03/13 04:20:00;;;;;;;26.15;7.22;;;;;;;3.55;85.96;97990.16;5044711;28;20030;-64
2021/03/13 04:22:26;;;;;;;27.65;7.68;;;;;;;3.54;85.91;97998.75;5044459;28;20540;-64
2021/03/13 04:24:52;;;;;;;20.38;7.07;;;;;;;3.51;85.79;97993.69;5044651;28;20033;-64
2021/03/13 04:27:20;;;;;;;25.73;6.53;;;;;;;3.47;85.85;97987.75;5042932;28;20043;-65
2021/03/13 04:29:46;;;;;;;21.80;6.68;;;;;;;3.55;85.83;97995.28;5044795;28;20037;-64
2021/03/13 04:32:15;;;;;;;23.45;7.93;;;;;;;3.52;85.71;98001.34;5044357;28;20048;-64
2021/03/13 04:34:42;;;;;;;25.67;6.78;;;;;;;3.46;85.81;97997.19;5044532;28;20021;-64
2021/03/13 04:37:09;;;;;;;26.67;7.10;;;;;;;3.48;85.85;97994.59;5044418;28;20090;-64
2021/03/13 04:39:35;;;;;;;31.42;7.63;;;;;;;3.54;85.85;98002.16;5044590;28;20025;-65
2021/03/13 04:42:01;;;;;;;21.73;6.55;;;;;;;3.50;85.80;97989.44;5044084;28;20025;-65
2021/03/13 04:44:27;;;;;;;29.08;7.95;;;;;;;3.52;85.48;97998.78;5044360;28;20052;-65
2021/03/13 04:46:53;;;;;;;21.90;6.22;;;;;;;3.52;85.43;97996.22;5044092;28;20022;-64
2021/03/13 04:49:19;;;;;;;19.48;5.82;;;;;;;3.43;85.62;97986.13;5044503;28;20033;-64
2021/03/13 04:51:46;;;;;;;23.83;6.63;;;;;;;3.43;85.67;97986.97;5044233;28;20473;-65
2021/03/13 04:54:13;;;;;;;21.75;6.78;;;;;;;3.50;85.64;97997.13;5043913;28;20056;-64
2021/03/13 04:56:39;;;;;;;19.42;6.55;;;;;;;3.49;85.51;97997.97;5044008;28;20314;-64
2021/03/13 04:59:05;;;;;;;21.27;5.82;;;;;;;3.47;85.73;98004.00;5044123;28;20178;-64
2021/03/13 05:01:30;;;;;;;28.83;7.40;;;;;;;3.47;85.65;98001.44;5042434;28;20060;-64
2021/03/13 05:03:55;;;;;;;20.65;6.38;;;;;;;3.47;85.62;97998.00;5044016;28;20045;-64
2021/03/13 05:06:21;;;;;;;21.27;6.43;;;;;;;3.46;85.54;98004.88;5044247;28;20101;-64
2021/03/13 05:08:46;;;;;;;33.38;6.53;;;;;;;3.45;85.73;98005.72;5043858;28;20025;-64
2021/03/13 05:11:12;;;;;;;26.10;8.57;;;;;;;3.41;85.54;98000.69;5044012;28;20021;-64
2021/03/13 05:13:37;;;;;;;26.60;8.48;;;;;;;3.42;85.42;98000.66;5043644;28;20029;-64
2021/03/13 05:16:03;;;;;;;26.67;6.20;;;;;;;3.39;85.35;97999.88;5043165;28;20046;-64
2021/03/13 05:18:28;;;;;;;28.88;6.47;;;;;;;3.39;85.36;97995.59;5043603;28;20089;-64
2021/03/13 05:20:54;;;;;;;21.80;5.72;;;;;;;3.40;85.46;97999.88;5043470;28;20021;-64
2021/03/13 05:23:19;;;;;;;21.08;5.20;;;;;;;3.38;85.54;97998.19;5043663;28;20490;-64
2021/03/13 05:25:45;;;;;;;30.25;7.95;;;;;;;3.34;85.37;97995.66;5043501;28;20198;-64
2021/03/13 05:28:11;;;;;;;39.95;7.80;;;;;;;3.30;85.28;97996.63;5043574;28;20028;-64
2021/03/13 05:30:36;;;;;;;21.38;5.85;;;;;;;3.34;85.53;97995.66;5043616;28;20040;-64
2021/03/13 05:33:02;;;;;;;18.33;5.38;;;;;;;3.34;85.61;97995.66;5043309;28;20056;-63
2021/03/13 05:35:27;;;;;;;27.92;6.75;;;;;;;3.37;85.44;97994.75;5043545;28;20022;-64
2021/03/13 05:37:53;;;;;;;26.67;5.25;;;;;;;3.36;85.27;97995.66;5043421;28;20017;-63
2021/03/13 05:40:19;;;;;;;17.02;5.55;;;;;;;3.33;85.58;97985.44;5043384;28;20021;-63
2021/03/13 05:42:44;;;;;;;21.48;6.32;;;;;;;3.33;85.59;97985.44;5043275;28;20177;-63
2021/03/13 05:45:10;;;;;;;33.42;8.52;;;;;;;3.33;85.78;97986.28;5043059;28;20017;-63
2021/03/13 05:47:37;;;;;;;30.13;6.72;;;;;;;3.36;85.74;97993.06;5043259;28;20025;-63
2021/03/13 05:50:05;;;;;;;25.65;7.10;;;;;;;3.38;85.61;97988.78;5043391;28;20029;-63
2021/03/13 05:52:33;;;;;;;37.95;7.82;;;;;;;3.38;85.62;97990.47;5041814;28;20017;-64
2021/03/13 05:54:59;;;;;;;33.40;7.32;;;;;;;3.34;85.61;97985.41;5043396;28;20029;-63
2021/03/13 05:57:25;;;;;;;28.40;6.78;;;;;;;3.35;85.62;97983.69;5043202;28;20055;-63
2021/03/13 05:59:51;;;;;;;30.52;7.00;;;;;;;3.31;85.65;97982.06;5043450;28;20026;-63
2021/03/13 06:02:18;;;;;;;18.95;6.22;;;;;;;3.36;85.76;97993.06;5042412;28;20025;-63
2021/03/13 06:04:44;;;;;;;24.83;6.53;;;;;;;3.40;85.83;97992.16;5043130;28;20033;-63
2021/03/13 06:07:19;;;;;;;27.65;7.47;;;;;;;3.41;85.72;97996.41;5025273;28;20025;-63
2021/03/13 06:09:45;;;;;;;31.55;8.40;;;;;;;3.42;85.82;97985.25;5043048;28;20137;-63
2021/03/13 06:12:11;;;;;;;25.77;7.05;;;;;;;3.41;85.66;97985.28;5043056;28;20485;-63
2021/03/13 06:14:36;;;;;;;25.42;6.97;;;;;;;3.37;85.75;97981.94;5043206;28;20082;-63
2021/03/13 06:17:02;;;;;;;35.97;7.80;;;;;;;3.41;85.61;97973.31;5042786;28;20033;-63
2021/03/13 06:19:55;;;;;;;31.30;5.60;;;;;;;3.41;85.61;97968.19;5043392;28;20025;-63
2021/03/13 06:22:40;;;;;;;30.10;6.95;;;;;;;3.42;85.67;97977.56;5041376;28;20025;-63
2021/03/13 06:25:18;;;;;;;26.33;7.47;;;;;;;3.44;85.80;97977.53;5043062;28;20060;-64
2021/03/13 06:27:46;;;;;;;31.30;7.50;;;;;;;3.46;85.66;97968.97;5046528;28;20049;-64
2021/03/13 06:30:13;;;;;;;31.75;6.18;;;;;;;3.49;85.47;97975.75;5046503;28;20568;-64
2021/03/13 06:32:39;;;;;;;28.38;7.10;;;;;;;3.47;85.30;97975.78;5046787;28;20028;-63
2021/03/13 06:35:18;;;;;;;31.27;6.68;;;;;;;3.53;85.13;97981.69;5046886;28;20021;-64
2021/03/13 06:37:43;;;;;;;26.25;6.10;;;;;;;3.55;85.30;97988.47;5046674;28;20109;-64
2021/03/13 06:40:09;;;;;;;21.33;7.22;;;;;;;3.58;84.97;97979.84;5046748;28;20021;-63
2021/03/13 06:42:35;;;;;;;26.17;6.25;;;;;;;3.61;85.01;97984.09;5046677;28;20025;-65
2021/03/13 06:45:06;;;;;;;36.58;8.40;;;;;;;3.60;85.09;97983.22;5046588;28;20069;-65
2021/03/13 06:47:35;;;;;;;28.65;7.97;;;;;;;3.63;85.26;97978.03;5046508;28;20037;-65
2021/03/13 06:50:31;;;;;;;20.05;6.95;;;;;;;3.64;85.40;97969.50;5046359;28;20025;-65
2021/03/13 06:53:09;;;;;;;27.48;7.13;;;;;;;3.73;85.45;97981.28;5033571;28;20091;-65
2021/03/13 06:55:35;;;;;;;29.58;5.95;;;;;;;3.69;85.19;97977.91;5046704;28;20026;-65
2021/03/13 06:58:14;;;;;;;26.13;7.95;;;;;;;3.81;85.29;97978.56;5046257;28;20029;-66
2021/03/13 07:00:43;;;;;;;28.15;7.85;;;;;;;3.77;85.09;97970.06;5046218;28;20022;-67
2021/03/13 07:03:11;;;;;;;23.92;5.03;;;;;;;3.75;84.76;97982.09;5046282;28;20036;-67
2021/03/13 07:05:42;;;;;;;29.17;6.53;;;;;;;3.72;84.61;97987.31;5044913;28;20049;-66
2021/03/13 07:08:25;;;;;;;29.48;6.38;;;;;;;3.70;84.46;97983.91;5046168;28;20029;-66
2021/03/13 07:11:02;;;;;;;28.60;7.68;;;;;;;3.65;84.45;97985.72;5046236;28;20382;-66
2021/03/13 07:13:39;;;;;;;20.42;6.75;;;;;;;3.68;84.70;97986.50;5044806;28;20060;-66
2021/03/13 07:16:34;;;;;;;23.48;7.75;;;;;;;3.74;85.00;97992.41;5045702;28;20045;-65
2021/03/13 07:19:04;;;;;;;24.77;6.40;;;;;;;3.76;84.72;97988.06;5046302;28;20018;-66
2021/03/13 07:21:30;;;;;;;32.50;7.15;;;;;;;3.81;85.10;97991.38;5045782;28;20052;-66
2021/03/13 07:23:56;;;;;;;19.48;7.15;;;;;;;3.85;84.81;97990.44;5045659;28;20036;-66
2021/03/13 07:26:24;;;;;;;18.25;5.75;;;;;;;3.87;84.62;97987.84;5045604;28;20045;-66
2021/03/13 07:28:52;;;;;;;25.85;7.30;;;;;;;3.90;84.45;97983.50;5045908;28;20081;-66
2021/03/13 07:31:19;;;;;;;27.60;6.82;;;;;;;3.94;84.81;97972.31;5045384;28;20454;-65
2021/03/13 07:33:48;;;;;;;33.35;7.90;;;;;;;3.96;84.63;97991.06;5045408;28;20109;-67
2021/03/13 07:36:18;;;;;;;28.83;7.40;;;;;;;4.02;84.61;97987.56;5045953;28;20025;-67
2021/03/13 07:38:45;;;;;;;32.25;7.57;;;;;;;3.97;84.40;97987.66;5045051;28;20482;-67
2021/03/13 07:41:16;;;;;;;24.10;7.00;;;;;;;4.02;84.46;98000.38;5045367;28;20141;-66
2021/03/13 07:43:44;;;;;;;25.63;7.53;;;;;;;3.96;84.16;97991.06;5045656;28;20017;-67
2021/03/13 07:46:10;;;;;;;28.92;8.65;;;;;;;3.98;84.61;97998.75;5045279;28;20036;-67
2021/03/13 07:48:37;;;;;;;20.70;6.90;;;;;;;3.99;84.84;97987.63;5044185;28;20034;-61
2021/03/13 07:51:08;;;;;;;22.83;8.63;;;;;;;3.93;84.25;97991.13;5045182;28;20021;-64
2021/03/13 07:53:38;;;;;;;36.45;8.65;;;;;;;3.92;84.14;97994.59;5045246;28;20538;-64
2021/03/13 07:56:07;;;;;;;19.27;7.15;;;;;;;3.94;84.36;97994.56;5045256;28;20051;-63
2021/03/13 07:58:37;;;;;;;33.65;7.47;;;;;;;3.93;84.85;97990.31;5045278;28;20022;-64
2021/03/13 08:01:02;;;;;;;24.73;8.10;;;;;;;3.97;84.51;97994.50;5044950;28;20098;-65
2021/03/13 08:03:34;;;;;;;27.25;7.35;;;;;;;3.96;84.67;97996.22;5044945;28;20029;-63
2021/03/13 08:06:01;;;;;;;33.97;8.07;;;;;;;3.99;84.58;97999.59;5045305;28;20436;-63
2021/03/13 08:08:46;;;;;;;27.92;7.00;;;;;;;4.04;84.79;97992.66;5045117;28;20105;-63
2021/03/13 08:11:13;;;;;;;19.52;5.38;;;;;;;4.13;84.82;97992.47;5045000;28;20022;-64
2021/03/13 08:13:38;;;;;;;28.60;6.57;;;;;;;4.17;84.54;97993.25;5045148;28;20390;-64
2021/03/13 08:16:04;;;;;;;19.02;7.30;;;;;;;4.18;84.20;97992.34;5044714;28;20509;-64
2021/03/13 08:18:41;;;;;;;16.38;5.63;;;;;;;4.21;84.24;97990.59;5045104;28;20040;-63
2021/03/13 08:21:19;;;;;;;25.80;7.63;;;;;;;4.24;83.96;97984.53;5044793;28;20030;-64
2021/03/13 08:23:55;;;;;;;23.00;7.22;;;;;;;4.27;83.95;97986.16;5043138;28;20036;-65
2021/03/13 08:26:56;;;;;;;14.85;4.60;;;;;;;4.34;83.82;97992.88;5044729;28;20053;-64
2021/03/13 08:29:44;;;;;;;19.33;5.53;;;;;;;4.36;83.80;97985.13;5044580;28;20026;-65
2021/03/13 08:32:09;;;;;;;18.85;8.80;;;;;;;4.39;83.33;97991.06;5044448;28;20048;-65
2021/03/13 08:34:35;;;;;;;19.48;5.60;;;;;;;4.41;83.36;97986.72;5044721;28;20030;-64
2021/03/13 08:37:15;;;;;;;17.67;5.72;;;;;;;4.41;83.16;97979.00;5044654;28;20037;-64
2021/03/13 08:39:41;;;;;;;22.67;6.28;;;;;;;4.46;83.35;97984.88;5044916;28;20030;-64
2021/03/13 08:42:06;;;;;;;19.73;6.97;;;;;;;4.56;83.69;97972.69;5044518;28;20028;-64
2021/03/13 08:44:33;;;;;;;15.85;6.10;;;;;;;4.66;83.61;97965.59;5043003;28;20029;-64
2021/03/13 08:47:07;;;;;;;29.63;7.07;;;;;;;4.75;82.99;97969.66;5044245;28;20025;-64
2021/03/13 08:49:34;;;;;;;30.77;6.10;;;;;;;4.87;82.64;97972.81;5043278;28;20025;-65
2021/03/13 08:52:06;;;;;;;22.33;8.10;;;;;;;4.95;82.24;97965.78;5044261;28;20029;-63
2021/03/13 08:54:41;;;;;;;26.27;6.10;;;;;;;5.15;83.17;97972.13;5044434;28;20021;-64
2021/03/13 08:57:10;;;;;;;20.83;6.22;;;;;;;5.39;82.89;97970.66;5044183;28;20029;-64
2021/03/13 08:59:38;;;;;;;17.70;5.07;;;;;;;5.51;82.15;97972.03;5036311;28;20057;-64
2021/03/13 09:02:12;;;;;;;20.95;5.43;;;;;;;5.50;81.29;97966.94;5044011;28;20041;-64
2021/03/13 09:04:40;;;;;;;20.23;6.20;;;;;;;5.48;81.10;97969.53;5044042;28;20040;-64
2021/03/13 09:07:07;;;;;;;18.88;5.13;;;;;;;5.43;81.46;97967.09;5044092;28;20035;-63
2021/03/13 09:09:36;;;;;;;20.42;5.22;;;;;;;5.41;80.37;97968.03;5044031;28;20021;-64
2021/03/13 09:12:10;;;;;;;12.02;5.18;;;;;;;5.33;80.17;97957.94;5044206;28;20026;-64
2021/03/13 09:14:40;;;;;;;9.55;3.88;;;;;;;5.30;79.78;97966.56;5044151;28;20022;-64
2021/03/13 09:17:16;;;;;;;22.85;4.93;;;;;;;5.35;79.91;97963.91;5043982;28;20021;-64
2021/03/13 09:19:44;;;;;;;11.98;4.43;;;;;;;5.32;80.58;97966.53;5043836;28;20108;-63
2021/03/13 09:22:27;;;;;;;13.23;4.20;;;;;;;5.23;79.62;97953.91;5043603;28;20545;-64
2021/03/13 09:25:22;;;;;;;15.32;5.55;;;;;;;5.19;79.81;97959.16;5043845;28;20029;-64
2021/03/13 09:27:52;;;;;;;15.25;5.13;;;;;;;5.22;80.38;97950.53;5014856;28;20045;-65
2021/03/13 09:30:23;;;;;;;6.53;2.90;;;;;;;5.32;79.10;97953.66;5024200;28;20029;-65
2021/03/13 09:32:51;;;;;;;11.93;4.43;;;;;;;5.34;77.74;97936.47;5024057;28;20164;-63
2021/03/13 09:35:19;;;;;;;9.82;3.78;;;;;;;5.66;79.29;97941.63;5022834;28;20044;-64
2021/03/13 09:37:45;;;;;;;11.07;4.05;;;;;;;5.89;79.73;97925.53;5024404;28;20032;-62
2021/03/13 09:40:19;;;;;;;14.50;4.20;;;;;;;6.22;80.01;97936.59;5024201;28;20022;-65
2021/03/13 09:42:46;;;;;;;13.40;4.05;;;;;;;6.29;78.87;97932.97;5024305;28;20417;-64
2021/03/13 09:45:14;;;;;;;12.10;3.72;;;;;;;6.61;79.24;97910.50;5024652;28;20025;-66
2021/03/13 09:47:58;;;;;;;11.18;2.60;;;;;;;6.81;76.56;97929.59;5024201;28;20022;-66
2021/03/13 09:50:28;;;;;;;9.77;3.25;;;;;;;6.44;74.08;97924.75;5025213;28;20040;-68
2021/03/13 09:52:54;;;;;;;13.68;3.60;;;;;;;6.07;75.43;97923.31;5027870;28;20090;-65
2021/03/13 09:55:22;;;;;;;11.85;3.63;;;;;;;5.91;77.53;97925.47;5026756;28;20048;-65
2021/03/13 09:57:50;;;;;;;14.15;3.40;;;;;;;5.97;78.09;97925.28;5023480;28;20051;-66
2021/03/13 10:00:17;;;;;;;18.95;3.97;;;;;;;5.99;78.16;97923.50;5023653;28;20037;-64
2021/03/13 10:02:44;;;;;;;7.95;2.85;;;;;;;5.92;78.40;97922.00;5025963;28;20045;-64
2021/03/13 10:05:18;;;;;;;19.40;4.50;;;;;;;5.81;77.41;97920.56;5027842;28;20050;-65
2021/03/13 10:07:46;;;;;;;18.63;3.97;;;;;;;5.77;76.81;97928.44;5027449;28;20026;-64
2021/03/13 10:10:20;;;;;;;22.77;5.28;;;;;;;5.69;76.71;97928.66;5027023;28;20026;-65
2021/03/13 10:12:51;;;;;;;19.17;3.40;;;;;;;5.68;77.17;97925.25;5027230;28;20033;-65
2021/03/13 10:15:22;;;;;;;19.05;4.72;;;;;;;5.61;76.48;97936.59;5042589;28;20025;-66
2021/03/13 10:18:15;;;;;;;12.55;4.10;;;;;;;5.55;76.29;97941.91;5027346;28;20022;-67
2021/03/13 10:20:47;;;;;;;22.60;5.68;;;;;;;5.44;76.40;97929.34;5026938;28;20030;-66
2021/03/13 10:23:16;;;;;;;12.63;3.97;;;;;;;5.48;77.31;97924.97;5027051;28;20434;-65
2021/03/13 10:25:53;;;;;;;13.98;3.92;;;;;;;5.44;78.00;97922.50;5030070;28;20108;-66
2021/03/13 10:28:19;;;;;;;18.85;4.40;;;;;;;5.31;77.15;97918.53;5067040;28;20025;-65
2021/03/13 10:30:46;;;;;;;14.55;3.72;;;;;;;5.30;78.00;97927.16;5066727;28;20028;-65
2021/03/13 10:33:12;;;;;;;21.98;4.57;;;;;;;5.27;78.10;97924.66;5066878;28;20025;-66
2021/03/13 10:35:38;;;;;;;16.02;3.88;;;;;;;5.14;78.22;97927.56;5066853;28;20081;-66
2021/03/13 10:38:17;;;;;;;20.83;5.03;;;;;;;5.11;78.88;97919.94;5067066;28;20025;-66
2021/03/13 10:40:47;;;;;;;20.35;4.63;;;;;;;5.06;78.75;97916.63;5066786;28;20081;-66
2021/03/13 10:43:23;;;;;;;14.70;5.70;;;;;;;4.99;78.98;97915.94;5066624;28;20085;-66
2021/03/13 10:45:58;;;;;;;24.50;5.20;;;;;;;5.12;80.15;97905.34;5066141;28;20021;-66
2021/03/13 10:48:30;;;;;;;19.38;4.75;;;;;;;6.34;80.51;97896.75;5066400;28;20024;-65
2021/03/13 10:50:56;;;;;;;;;;;;;;;7.83;76.60;97892.53;5066716;28;20036;-64
2021/03/13 10:53:31;;;;;;;14.50;3.60;;;;;;;8.98;73.71;97889.78;5066411;28;19908;-65
2021/03/13 10:56:02;;;;;;;19.92;5.05;;;;;;;10.03;71.96;97875.66;5066415;28;20088;-66
2021/03/13 10:58:31;;;;;;;15.10;6.05;;;;;;;10.91;66.28;97888.72;5049180;28;20039;-68
2021/03/13 11:00:58;;;;;;;9.65;2.88;;;;;;;10.22;66.19;97885.13;5065877;28;20025;-66
2021/03/13 11:03:24;;;;;;;19.25;4.18;;;;;;;9.26;67.17;97891.16;5066406;28;20094;-65
2021/03/13 11:05:51;;;;;;;12.93;3.63;;;;;;;8.47;68.12;97887.47;5066641;28;20071;-64
2021/03/13 11:08:22;;;;;;;9.38;2.53;;;;;;;7.93;69.63;97892.13;5066284;28;20040;-64
2021/03/13 11:10:49;;;;;;;15.77;3.78;;;;;;;7.71;72.08;97891.25;5066333;28;20083;-64
2021/03/13 11:13:16;;;;;;;10.02;3.65;;;;;;;7.50;72.93;97897.16;5064836;28;20076;-65
2021/03/13 11:15:41;;;;;;;14.07;3.28;;;;;;;7.36;72.10;97896.81;5065902;28;20025;-65
2021/03/13 11:18:07;;;;;;;18.75;3.25;;;;;;;7.10;73.10;97881.34;5066307;28;20025;-65
2021/03/13 11:20:34;;;;;;;18.65;3.75;;;;;;;7.00;70.82;97890.28;5065971;28;20029;-68
2021/03/13 11:23:00;;;;;;;12.50;3.20;;;;;;;6.71;70.96;97885.22;5047954;28;20020;-69
2021/03/13 11:25:26;;;;;;;11.63;2.88;;;;;;;6.41;71.60;97868.16;5066137;28;20074;-67
2021/03/13 11:27:51;;;;;;;13.90;3.85;;;;;;;6.09;72.23;97882.88;5065681;28;20041;-68
2021/03/13 11:30:17;;;;;;;15.05;3.63;;;;;;;5.85;73.12;97893.00;5065838;28;20040;-66
2021/03/13 11:32:43;;;;;;;20.83;5.13;;;;;;;5.81;74.13;97899.16;5065407;28;20055;-66
2021/03/13 11:35:09;;;;;;;15.75;3.95;;;;;;;5.58;74.22;97898.06;5065657;28;20025;-65
2021/03/13 11:37:35;;;;;;;11.00;2.90;;;;;;;5.65;72.57;97889.31;5065577;28;20028;-66
2021/03/13 11:40:03;;;;;;;7.55;2.47;;;;;;;5.51;73.07;97899.97;5065680;28;20060;-67
2021/03/13 11:42:30;;;;;;;14.68;3.40;;;;;;;5.30;73.29;97893.72;5065465;28;20017;-67